Terminal Aerodrome Forecast
Issued by NWS

Home | Current Version | Previous Version | Text Only | Print | Product List | Glossary Off
Versions: 1 2 3 4 5 6 7 8 9 10 11 12 13 14 15 16 17 18 19 20

632
FTUS43 KABR 301541 AAA
TAFPIR
TAF AMD
KPIR 301541Z 3016/0112 05017G24KT P6SM OVC050
     FM302000 04019G27KT P6SM VCSH OVC050
     FM010200 02009KT P6SM OVC100
     FM010800 35007KT P6SM SKC=

USA.gov is the U.S. government's official web portal to all federal, state and local government web resources and services.